Time;durP1;ratioP1;P1;durP2;ratioP2;P2;SDS_P1;SDS_P2;PMS_P1;PMS_P2;Temp;Humidity;BMP_temperature;BMP_pressure;BME280_temperature;BME280_humidity;BME280_pressure;Samples;Min_cycle;Max_cycle;Signal;HPM_P1;HPM_P2
2021/04/10 00:00:00;;;;;;;;;;;13.60;53.70;;;;;;2055555;28;1465;-82
2021/04/10 00:01:19;;;;;;;;;;;13.60;53.70;;;;;;2057922;28;671;-81
2021/04/10 00:02:39;;;;;;;;;;;13.60;53.70;;;;;;2064185;28;679;-80
2021/04/10 00:04:00;;;;;;;;;;;13.50;53.60;;;;;;2071963;28;1445;-82
2021/04/10 00:05:23;;;;;;;;;;;13.60;53.70;;;;;;2067040;28;604;-82
2021/04/10 00:06:42;;;;;;;;;;;13.50;53.70;;;;;;2058535;28;1312;-81
2021/04/10 00:08:01;;;;;;;;;;;13.50;54.20;;;;;;2060831;28;941;-81
2021/04/10 00:09:20;;;;;;;;;;;13.60;53.70;;;;;;2067445;28;1503;-81
2021/04/10 00:10:40;;;;;;;;;;;13.50;53.70;;;;;;2058290;28;612;-80
2021/04/10 00:11:59;;;;;;;;;;;13.50;53.70;;;;;;2073129;28;665;-80
2021/04/10 00:13:18;;;;;;;;;;;13.50;53.70;;;;;;2066755;28;623;-80
2021/04/10 00:14:38;;;;;;;;;;;13.50;53.80;;;;;;2068103;28;611;-80
2021/04/10 00:15:57;;;;;;;;;;;13.50;53.80;;;;;;2058480;28;1451;-80
2021/04/10 00:17:16;;;;;;;;;;;13.60;53.80;;;;;;2057407;28;652;-80
2021/04/10 00:18:35;;;;;;;;;;;13.50;53.80;;;;;;2058812;28;678;-81
2021/04/10 00:19:54;;;;;;;;;;;13.50;53.80;;;;;;2071823;28;1363;-82
2021/04/10 00:21:14;;;;;;;;;;;13.50;53.80;;;;;;2064272;28;1185;-80
2021/04/10 00:22:33;;;;;;;;;;;13.50;53.80;;;;;;2071721;28;650;-81
2021/04/10 00:23:52;;;;;;;;;;;13.50;53.80;;;;;;2058645;28;683;-81
2021/04/10 00:25:12;;;;;;;;;;;13.50;53.80;;;;;;2062270;28;631;-81
2021/04/10 00:26:31;;;;;;;;;;;13.50;54.40;;;;;;2067160;28;1300;-81
2021/04/10 00:27:50;;;;;;;;;;;13.50;53.80;;;;;;2058524;28;1488;-82
2021/04/10 00:29:09;;;;;;;;;;;13.50;53.90;;;;;;2063793;28;1374;-83
2021/04/10 00:30:29;;;;;;;;;;;13.50;53.90;;;;;;2063987;28;686;-80
2021/04/10 00:31:48;;;;;;;;;;;13.50;53.90;;;;;;2071741;28;692;-80
2021/04/10 00:33:07;;;;;;;;;;;13.50;53.90;;;;;;2067877;28;603;-80
2021/04/10 00:34:26;;;;;;;;;;;13.50;53.90;;;;;;2072845;28;619;-82
2021/04/10 00:35:46;;;;;;;;;;;13.50;53.90;;;;;;2067389;28;647;-80
2021/04/10 00:37:05;;;;;;;;;;;13.40;53.80;;;;;;2072797;28;950;-81
2021/04/10 00:38:24;;;;;;;;;;;13.50;53.90;;;;;;2059618;28;1030;-82
2021/04/10 00:39:44;;;;;;;;;;;13.40;53.80;;;;;;2060099;28;1413;-80
2021/04/10 00:41:03;;;;;;;;;;;13.50;53.90;;;;;;2060374;28;639;-82
2021/04/10 00:42:22;;;;;;;;;;;13.40;53.90;;;;;;2065250;28;632;-81
2021/04/10 00:43:44;;;;;;;;;;;13.40;54.40;;;;;;2060711;28;712;-81
2021/04/10 00:45:04;;;;;;;;;;;13.50;54.00;;;;;;2052857;28;623;-81
2021/04/10 00:46:25;;;;;;;;;;;13.40;53.90;;;;;;2065937;28;1133;-81
2021/04/10 00:47:45;;;;;;;;;;;13.40;53.90;;;;;;2062694;28;676;-80
2021/04/10 00:49:08;;;;;;;;;;;13.40;53.90;;;;;;2058278;28;600;-82
2021/04/10 00:50:27;;;;;;;;;;;13.40;53.90;;;;;;2069654;28;663;-81
2021/04/10 00:51:47;;;;;;;;;;;13.40;54.50;;;;;;2066135;28;1281;-79
2021/04/10 00:53:06;;;;;;;;;;;13.40;54.50;;;;;;2055506;28;640;-81
2021/04/10 00:54:25;;;;;;;;;;;13.40;53.90;;;;;;2066908;28;572;-81
2021/04/10 00:55:45;;;;;;;;;;;13.40;54.00;;;;;;2062689;28;676;-83
2021/04/10 00:57:05;;;;;;;;;;;13.40;54.00;;;;;;2054558;29;623;-82
2021/04/10 00:58:24;;;;;;;;;;;13.40;54.00;;;;;;2064338;28;690;-83
2021/04/10 00:59:44;;;;;;;;;;;13.40;54.00;;;;;;2063333;28;1307;-82
2021/04/10 01:01:04;;;;;;;;;;;13.40;54.10;;;;;;2057423;28;631;-82
2021/04/10 01:02:24;;;;;;;;;;;13.40;54.00;;;;;;2073172;28;643;-83
2021/04/10 01:03:43;;;;;;;;;;;13.40;54.10;;;;;;2058375;28;687;-81
2021/04/10 01:05:03;;;;;;;;;;;13.40;54.60;;;;;;2069444;28;1403;-81
2021/04/10 01:06:23;;;;;;;;;;;13.40;54.10;;;;;;2067862;28;1220;-80
2021/04/10 01:07:42;;;;;;;;;;;13.40;54.10;;;;;;2068306;28;1127;-80
2021/04/10 01:09:02;;;;;;;;;;;13.30;54.00;;;;;;2075198;28;985;-80
2021/04/10 01:10:23;;;;;;;;;;;13.40;54.10;;;;;;2055547;28;705;-81
2021/04/10 01:11:52;;;;;;;;;;;13.40;54.10;;;;;;2064572;28;611;-80
2021/04/10 01:13:17;;;;;;;;;;;13.30;54.00;;;;;;2065178;28;615;-81
2021/04/10 01:14:41;;;;;;;;;;;13.40;54.10;;;;;;2081787;28;662;-81
2021/04/10 01:16:01;;;;;;;;;;;13.40;54.10;;;;;;2070607;28;579;-82
2021/04/10 01:17:23;;;;;;;;;;;13.40;54.10;;;;;;2067961;28;702;-81
2021/04/10 01:19:04;;;;;;;;;;;13.40;54.10;;;;;;2057803;28;600;-83
2021/04/10 01:20:27;;;;;;;;;;;13.30;54.00;;;;;;2075686;28;643;-82
2021/04/10 01:21:49;;;;;;;;;;;13.30;54.60;;;;;;2066970;28;732;-80
2021/04/10 01:23:08;;;;;;;;;;;13.30;54.10;;;;;;2064960;28;672;-81
2021/04/10 01:24:30;;;;;;;;;;;13.30;54.10;;;;;;2056947;28;627;-81
2021/04/10 01:25:52;;;;;;;;;;;13.30;54.10;;;;;;2062166;28;696;-83
2021/04/10 01:27:30;;;;;;;;;;;13.30;54.10;;;;;;2064168;28;619;-80
2021/04/10 01:29:01;;;;;;;;;;;13.30;54.20;;;;;;2059678;28;706;-82
2021/04/10 01:30:20;;;;;;;;;;;13.30;54.20;;;;;;2058681;28;679;-83
2021/04/10 01:31:48;;;;;;;;;;;13.30;54.20;;;;;;2059453;28;678;-80
2021/04/10 01:33:10;;;;;;;;;;;13.30;54.20;;;;;;2068172;28;655;-82
2021/04/10 01:34:48;;;;;;;;;;;13.30;54.20;;;;;;2065102;28;687;-81
2021/04/10 01:36:10;;;;;;;;;;;13.30;54.30;;;;;;2059329;28;1177;-80
2021/04/10 01:37:30;;;;;;;;;;;13.30;54.20;;;;;;2063414;28;978;-83
2021/04/10 01:38:50;;;;;;;;;;;13.30;54.20;;;;;;2064720;28;1053;-82
2021/04/10 01:40:10;;;;;;;;;;;13.30;54.20;;;;;;2076147;28;650;-83
2021/04/10 01:41:30;;;;;;;;;;;13.30;54.20;;;;;;2066442;28;1527;-82
2021/04/10 01:42:53;;;;;;;;;;;13.30;54.70;;;;;;2062273;28;660;-82
2021/04/10 01:44:15;;;;;;;;;;;13.30;54.20;;;;;;2078663;28;730;-83
2021/04/10 01:45:38;;;;;;;;;;;13.30;54.20;;;;;;2052799;29;703;-83
2021/04/10 01:46:58;;;;;;;;;;;13.30;54.20;;;;;;2062801;28;1207;-82
2021/04/10 01:48:21;;;;;;;;;;;13.30;54.20;;;;;;2068190;28;965;-82
2021/04/10 01:49:48;;;;;;;;;;;13.20;54.10;;;;;;2081685;28;1512;-82
2021/04/10 01:51:08;;;;;;;;;;;13.30;54.20;;;;;;2070558;28;695;-84
2021/04/10 01:52:32;;;;;;;;;;;13.30;54.70;;;;;;2068381;28;1902;-83
2021/04/10 01:53:53;;;;;;;;;;;13.20;54.10;;;;;;2070749;28;655;-82
2021/04/10 01:55:17;;;;;;;;;;;13.30;54.20;;;;;;2068556;28;706;-81
2021/04/10 01:56:48;;;;;;;;;;;13.20;54.20;;;;;;2060256;28;1454;-82
2021/04/10 01:58:21;;;;;;;;;;;13.30;54.30;;;;;;2067790;28;682;-83
2021/04/10 01:59:49;;;;;;;;;;;13.20;54.20;;;;;;2059662;28;1399;-83
2021/04/10 02:01:19;;;;;;;;;;;13.20;54.80;;;;;;2074352;28;695;-83
2021/04/10 02:02:43;;;;;;;;;;;13.20;54.10;;;;;;2067110;28;612;-83
2021/04/10 02:04:08;;;;;;;;;;;13.20;54.20;;;;;;2069762;28;777;-83
2021/04/10 02:05:31;;;;;;;;;;;13.20;54.30;;;;;;2070574;28;657;-82
2021/04/10 02:07:08;;;;;;;;;;;13.20;54.30;;;;;;2080838;28;1369;-83
2021/04/10 02:08:31;;;;;;;;;;;13.20;54.30;;;;;;2078977;28;1050;-82
2021/04/10 02:09:57;;;;;;;;;;;13.20;54.30;;;;;;2061245;28;1422;-82
2021/04/10 02:11:37;;;;;;;;;;;13.20;54.30;;;;;;2077214;28;673;-83
2021/04/10 02:13:03;;;;;;;;;;;13.20;54.40;;;;;;2076086;28;1914;-83
2021/04/10 02:14:48;;;;;;;;;;;13.20;54.40;;;;;;2069083;28;1272;-83
2021/04/10 02:16:07;;;;;;;;;;;13.20;54.40;;;;;;2060033;28;1398;-83
2021/04/10 02:17:32;;;;;;;;;;;13.20;54.90;;;;;;2071684;28;1244;-84
2021/04/10 02:18:57;;;;;;;;;;;13.20;54.30;;;;;;2074053;28;1068;-84
2021/04/10 02:20:16;;;;;;;;;;;13.20;54.30;;;;;;2072658;28;620;-83
2021/04/10 02:21:38;;;;;;;;;;;13.20;54.30;;;;;;2074284;28;628;-83
2021/04/10 02:22:58;;;;;;;;;;;13.20;54.90;;;;;;2061761;28;670;-84
2021/04/10 02:24:24;;;;;;;;;;;13.20;54.30;;;;;;2068254;28;679;-83
2021/04/10 02:25:51;;;;;;;;;;;13.20;54.30;;;;;;2071297;28;1403;-83
2021/04/10 02:27:11;;;;;;;;;;;13.20;54.30;;;;;;2065027;28;1450;-83
2021/04/10 02:28:40;;;;;;;;;;;13.20;54.30;;;;;;2061889;28;650;-84
2021/04/10 02:30:00;;;;;;;;;;;13.10;54.20;;;;;;2066907;28;1362;-82
2021/04/10 02:31:23;;;;;;;;;;;13.20;54.30;;;;;;2054304;29;616;-83
2021/04/10 02:33:05;;;;;;;;;;;13.20;54.30;;;;;;2063399;28;1936;-84
2021/04/10 02:34:32;;;;;;;;;;;13.20;54.40;;;;;;2061397;28;621;-82
2021/04/10 02:35:57;;;;;;;;;;;13.10;54.30;;;;;;2066832;28;691;-81
2021/04/10 02:37:16;;;;;;;;;;;13.10;54.30;;;;;;2075603;28;1330;-82
2021/04/10 02:38:37;;;;;;;;;;;13.10;54.30;;;;;;2052968;29;1089;-84
2021/04/10 02:39:57;;;;;;;;;;;13.10;54.30;;;;;;2070877;28;1508;-84
2021/04/10 02:41:19;;;;;;;;;;;13.10;54.40;;;;;;2060834;28;690;-81
2021/04/10 02:42:40;;;;;;;;;;;13.10;54.40;;;;;;2055341;28;1383;-83
2021/04/10 02:44:03;;;;;;;;;;;13.10;54.40;;;;;;2065984;28;1252;-82
2021/04/10 02:45:26;;;;;;;;;;;13.10;54.90;;;;;;2079949;28;670;-83
2021/04/10 02:46:49;;;;;;;;;;;13.10;54.40;;;;;;2060763;28;1367;-81
2021/04/10 02:48:10;;;;;;;;;;;13.10;54.40;;;;;;2074321;28;631;-82
2021/04/10 02:49:30;;;;;;;;;;;13.10;54.40;;;;;;2070050;28;1373;-83
2021/04/10 02:50:53;;;;;;;;;;;13.10;54.40;;;;;;2064687;28;1418;-82
2021/04/10 02:52:12;;;;;;;;;;;13.10;54.40;;;;;;2063910;28;1954;-82
2021/04/10 02:53:33;;;;;;;;;;;13.10;54.40;;;;;;2074185;28;640;-83
2021/04/10 02:54:53;;;;;;;;;;;13.10;54.40;;;;;;2064276;28;663;-82
2021/04/10 02:56:12;;;;;;;;;;;13.10;54.40;;;;;;2054304;28;692;-83
2021/04/10 02:57:31;;;;;;;;;;;13.10;54.40;;;;;;2063146;28;639;-84
2021/04/10 02:58:50;;;;;;;;;;;13.10;54.40;;;;;;2061620;28;675;-83
2021/04/10 03:00:18;;;;;;;;;;;13.10;54.40;;;;;;2070759;28;1389;-82
2021/04/10 03:01:38;;;;;;;;;;;13.10;54.40;;;;;;2076742;28;635;-81
2021/04/10 03:02:57;;;;;;;;;;;13.10;54.40;;;;;;2074228;28;630;-81
2021/04/10 03:04:17;;;;;;;;;;;13.10;54.40;;;;;;2074213;28;617;-82
2021/04/10 03:05:38;;;;;;;;;;;13.10;54.90;;;;;;2070052;28;583;-83
2021/04/10 03:06:57;;;;;;;;;;;13.00;54.40;;;;;;2069065;28;1052;-82
2021/04/10 03:08:18;;;;;;;;;;;13.00;54.40;;;;;;2060775;28;1105;-80
2021/04/10 03:09:37;;;;;;;;;;;13.00;54.40;;;;;;2072564;28;1497;-81
2021/04/10 03:10:57;;;;;;;;;;;13.10;54.50;;;;;;2068839;28;1398;-80
2021/04/10 03:12:17;;;;;;;;;;;13.10;54.50;;;;;;2068905;28;1883;-80
2021/04/10 03:13:38;;;;;;;;;;;13.10;54.50;;;;;;2085158;28;667;-82
2021/04/10 03:15:05;;;;;;;;;;;13.10;54.50;;;;;;2078789;28;1322;-80
2021/04/10 03:16:32;;;;;;;;;;;13.00;54.50;;;;;;2061661;28;603;-81
2021/04/10 03:17:59;;;;;;;;;;;13.00;54.50;;;;;;2064929;28;620;-80
2021/04/10 03:19:20;;;;;;;;;;;13.00;54.50;;;;;;2064014;28;1472;-81
2021/04/10 03:20:45;;;;;;;;;;;13.00;54.50;;;;;;2056107;28;609;-81
2021/04/10 03:22:05;;;;;;;;;;;13.00;54.50;;;;;;2079742;28;632;-80
2021/04/10 03:23:24;;;;;;;;;;;13.00;54.60;;;;;;2060720;28;682;-79
2021/04/10 03:24:44;;;;;;;;;;;13.00;54.60;;;;;;2070887;28;668;-80
2021/04/10 03:26:04;;;;;;;;;;;13.00;54.60;;;;;;2065369;28;588;-81
2021/04/10 03:27:26;;;;;;;;;;;13.00;54.60;;;;;;2058044;28;650;-81
2021/04/10 03:28:46;;;;;;;;;;;13.00;54.60;;;;;;2063364;28;608;-80
2021/04/10 03:30:06;;;;;;;;;;;13.00;54.60;;;;;;2062287;28;1480;-82
2021/04/10 03:31:33;;;;;;;;;;;13.00;54.60;;;;;;2071791;28;708;-81
2021/04/10 03:32:52;;;;;;;;;;;13.00;54.60;;;;;;2065767;28;1882;-80
2021/04/10 03:34:12;;;;;;;;;;;13.00;54.60;;;;;;2065562;28;674;-81
2021/04/10 03:35:32;;;;;;;;;;;13.00;54.50;;;;;;2055521;28;676;-81
2021/04/10 03:36:58;;;;;;;;;;;13.00;55.00;;;;;;2062958;28;1208;-82
2021/04/10 03:38:20;;;;;;;;;;;13.00;54.60;;;;;;2066931;28;1164;-79
2021/04/10 03:39:40;;;;;;;;;;;13.00;54.60;;;;;;2060851;28;1505;-81
2021/04/10 03:41:04;;;;;;;;;;;13.00;54.60;;;;;;2055653;28;640;-82
2021/04/10 03:42:25;;;;;;;;;;;13.00;55.20;;;;;;2069317;28;1436;-82
2021/04/10 03:43:45;;;;;;;;;;;13.00;54.60;;;;;;2055759;28;616;-83
2021/04/10 03:45:05;;;;;;;;;;;13.00;54.60;;;;;;2057782;28;628;-82
2021/04/10 03:46:25;;;;;;;;;;;13.00;54.70;;;;;;2061277;28;684;-82
2021/04/10 03:47:45;;;;;;;;;;;13.00;54.60;;;;;;2057737;28;654;-82
2021/04/10 03:49:04;;;;;;;;;;;13.00;54.60;;;;;;2060317;28;745;-81
2021/04/10 03:50:24;;;;;;;;;;;13.00;54.70;;;;;;2052762;28;1121;-83
2021/04/10 03:51:46;;;;;;;;;;;13.00;55.20;;;;;;2072099;28;1019;-82
2021/04/10 03:53:06;;;;;;;;;;;12.90;54.60;;;;;;2061589;28;1950;-84
2021/04/10 03:54:25;;;;;;;;;;;13.00;54.70;;;;;;2079721;28;1023;-82
2021/04/10 03:55:45;;;;;;;;;;;12.90;54.70;;;;;;2069307;28;1019;-83
2021/04/10 03:57:06;;;;;;;;;;;12.90;54.60;;;;;;2055717;28;1238;-82
2021/04/10 03:58:25;;;;;;;;;;;12.90;54.70;;;;;;2064937;28;1251;-83
2021/04/10 03:59:47;;;;;;;;;;;13.00;54.80;;;;;;2076376;28;1437;-82
2021/04/10 04:01:11;;;;;;;;;;;12.90;55.20;;;;;;2081443;28;1334;-82
2021/04/10 04:02:42;;;;;;;;;;;12.90;54.70;;;;;;2066094;28;988;-82
2021/04/10 04:04:05;;;;;;;;;;;12.90;54.70;;;;;;2067004;28;800;-81
2021/04/10 04:05:27;;;;;;;;;;;12.90;54.60;;;;;;2056050;28;1103;-83
2021/04/10 04:06:46;;;;;;;;;;;12.90;54.70;;;;;;2072210;28;942;-83
2021/04/10 04:08:06;;;;;;;;;;;12.90;55.20;;;;;;2065082;28;915;-83
2021/04/10 04:09:25;;;;;;;;;;;12.90;54.60;;;;;;2068941;28;1557;-82
2021/04/10 04:10:44;;;;;;;;;;;12.90;54.60;;;;;;2065183;28;941;-82
2021/04/10 04:12:07;;;;;;;;;;;12.90;54.70;;;;;;2061009;28;1105;-82
2021/04/10 04:13:27;;;;;;;;;;;12.90;54.70;;;;;;2060737;28;779;-83
2021/04/10 04:14:49;;;;;;;;;;;12.90;54.70;;;;;;2070751;28;838;-82
2021/04/10 04:16:08;;;;;;;;;;;12.90;54.70;;;;;;2076542;28;847;-82
2021/04/10 04:17:27;;;;;;;;;;;12.90;54.70;;;;;;2075247;28;985;-84
2021/04/10 04:18:47;;;;;;;;;;;12.90;54.70;;;;;;2075660;28;894;-82
2021/04/10 04:20:06;;;;;;;;;;;12.90;54.80;;;;;;2056881;28;1414;-82
2021/04/10 04:21:26;;;;;;;;;;;12.90;54.80;;;;;;2060801;28;1085;-83
2021/04/10 04:22:45;;;;;;;;;;;12.90;54.80;;;;;;2078350;28;876;-83
2021/04/10 04:24:05;;;;;;;;;;;12.90;54.90;;;;;;2074171;28;853;-83
2021/04/10 04:25:24;;;;;;;;;;;12.90;54.90;;;;;;2070107;28;820;-82
2021/04/10 04:26:44;;;;;;;;;;;12.90;54.90;;;;;;2070418;28;1014;-81
2021/04/10 04:28:03;;;;;;;;;;;12.90;54.90;;;;;;2076668;28;958;-82
2021/04/10 04:29:22;;;;;;;;;;;12.90;54.90;;;;;;2060493;28;1402;-81
2021/04/10 04:30:41;;;;;;;;;;;12.90;54.90;;;;;;2063512;28;896;-82
2021/04/10 04:32:01;;;;;;;;;;;12.90;54.90;;;;;;2056703;28;901;-83
2021/04/10 04:33:20;;;;;;;;;;;12.90;54.90;;;;;;2059045;28;972;-81
2021/04/10 04:34:39;;;;;;;;;;;12.90;54.90;;;;;;2070170;28;891;-81
2021/04/10 04:35:58;;;;;;;;;;;12.90;54.90;;;;;;2059922;28;1265;-82
2021/04/10 04:37:17;;;;;;;;;;;12.90;54.90;;;;;;2061255;28;858;-82
2021/04/10 04:38:39;;;;;;;;;;;12.90;54.90;;;;;;2072495;28;918;-82
2021/04/10 04:39:59;;;;;;;;;;;12.90;54.90;;;;;;2070092;28;1537;-83
2021/04/10 04:41:20;;;;;;;;;;;12.90;54.90;;;;;;2074340;28;1316;-84
2021/04/10 04:42:39;;;;;;;;;;;12.80;54.80;;;;;;2067808;28;945;-81
2021/04/10 04:43:58;;;;;;;;;;;12.90;54.90;;;;;;2064344;28;1054;-83
2021/04/10 04:45:18;;;;;;;;;;;12.80;54.80;;;;;;2062960;28;943;-80
2021/04/10 04:46:40;;;;;;;;;;;12.80;54.80;;;;;;2066794;28;901;-82
2021/04/10 04:47:59;;;;;;;;;;;12.80;54.80;;;;;;2061082;28;819;-82
2021/04/10 04:49:19;;;;;;;;;;;12.80;54.90;;;;;;2061451;28;1520;-82
2021/04/10 04:50:38;;;;;;;;;;;12.90;55.00;;;;;;2069411;28;938;-82
2021/04/10 04:51:58;;;;;;;;;;;12.80;55.00;;;;;;2066307;28;831;-82
2021/04/10 04:53:17;;;;;;;;;;;12.80;54.90;;;;;;2060716;28;945;-82
2021/04/10 04:54:39;;;;;;;;;;;12.80;54.90;;;;;;2057067;28;982;-83
2021/04/10 04:55:58;;;;;;;;;;;12.80;54.90;;;;;;2071056;28;889;-82
2021/04/10 04:57:17;;;;;;;;;;;12.80;54.90;;;;;;2063534;28;835;-82
2021/04/10 04:58:37;;;;;;;;;;;12.80;54.90;;;;;;2063457;28;874;-83
2021/04/10 04:59:56;;;;;;;;;;;12.80;55.00;;;;;;2068823;28;1555;-82
2021/04/10 05:01:15;;;;;;;;;;;12.80;55.50;;;;;;2058216;28;835;-82
2021/04/10 05:02:34;;;;;;;;;;;12.80;55.00;;;;;;2066842;28;1095;-80
2021/04/10 05:03:54;;;;;;;;;;;12.80;55.00;;;;;;2059471;28;1066;-81
2021/04/10 05:05:13;;;;;;;;;;;12.80;55.00;;;;;;2058391;28;937;-82
2021/04/10 05:06:32;;;;;;;;;;;12.80;55.00;;;;;;2058543;28;943;-84
2021/04/10 05:07:51;;;;;;;;;;;12.80;55.00;;;;;;2065716;28;843;-83
2021/04/10 05:09:11;;;;;;;;;;;12.80;55.00;;;;;;2057379;28;1488;-83
2021/04/10 05:10:30;;;;;;;;;;;12.80;55.10;;;;;;2064188;28;1062;-84
2021/04/10 05:11:50;;;;;;;;;;;12.80;55.00;;;;;;2068672;28;810;-82
2021/04/10 05:13:09;;;;;;;;;;;12.80;55.00;;;;;;2065074;28;1902;-82
2021/04/10 05:14:28;;;;;;;;;;;12.80;55.00;;;;;;2058382;28;1039;-82
2021/04/10 05:15:48;;;;;;;;;;;12.80;55.00;;;;;;2067763;28;994;-80
2021/04/10 05:17:08;;;;;;;;;;;12.80;55.00;;;;;;2063944;28;983;-82
2021/04/10 05:18:27;;;;;;;;;;;12.80;55.00;;;;;;2071129;28;974;-82
2021/04/10 05:19:46;;;;;;;;;;;12.80;55.00;;;;;;2060697;28;1441;-83
2021/04/10 05:21:07;;;;;;;;;;;12.80;55.00;;;;;;2064987;28;943;-83
2021/04/10 05:22:26;;;;;;;;;;;12.80;55.00;;;;;;2057998;28;822;-82
2021/04/10 05:23:45;;;;;;;;;;;12.80;55.00;;;;;;2064217;28;1002;-82
2021/04/10 05:25:05;;;;;;;;;;;12.80;55.10;;;;;;2065941;28;907;-83
2021/04/10 05:26:24;;;;;;;;;;;12.70;55.00;;;;;;2067555;28;824;-83
2021/04/10 05:27:43;;;;;;;;;;;12.70;55.00;;;;;;2060156;28;872;-84
2021/04/10 05:29:03;;;;;;;;;;;12.80;55.10;;;;;;2058435;28;790;-82
2021/04/10 05:30:23;;;;;;;;;;;12.80;55.10;;;;;;2059805;28;1042;-83
2021/04/10 05:31:42;;;;;;;;;;;12.80;55.10;;;;;;2055727;28;820;-83
2021/04/10 05:33:01;;;;;;;;;;;12.70;55.50;;;;;;2063212;28;1911;-83
2021/04/10 05:34:28;;;;;;;;;;;12.80;55.10;;;;;;2057940;28;884;-84
2021/04/10 05:35:47;;;;;;;;;;;12.70;55.10;;;;;;2070070;28;973;-81
2021/04/10 05:37:16;;;;;;;;;;;12.80;55.10;;;;;;2060094;28;1164;-81
2021/04/10 05:38:36;;;;;;;;;;;12.70;55.10;;;;;;2070000;28;994;-79
2021/04/10 05:39:55;;;;;;;;;;;12.70;55.80;;;;;;2062931;28;1477;-81
2021/04/10 05:41:17;;;;;;;;;;;12.70;56.50;;;;;;2064173;28;647;-82
2021/04/10 05:42:37;;;;;;;;;;;12.70;56.70;;;;;;2064348;28;683;-80
2021/04/10 05:43:56;;;;;;;;;;;12.70;57.50;;;;;;2072159;28;693;-80
2021/04/10 05:45:15;;;;;;;;;;;12.70;57.20;;;;;;2057868;28;670;-80
2021/04/10 05:46:34;;;;;;;;;;;12.70;57.20;;;;;;2074374;28;1417;-81
2021/04/10 05:47:54;;;;;;;;;;;12.70;57.00;;;;;;2068445;28;611;-79
2021/04/10 05:49:13;;;;;;;;;;;12.70;57.00;;;;;;2072877;28;1464;-81
2021/04/10 05:50:32;;;;;;;;;;;12.70;57.40;;;;;;2075863;28;619;-81
2021/04/10 05:51:54;;;;;;;;;;;12.70;57.60;;;;;;2063715;28;643;-81
2021/04/10 05:53:13;;;;;;;;;;;12.70;57.80;;;;;;2064664;28;1950;-81
2021/04/10 05:54:33;;;;;;;;;;;12.70;57.30;;;;;;2060981;28;1132;-80
2021/04/10 05:55:52;;;;;;;;;;;12.70;57.20;;;;;;2064031;28;686;-79
2021/04/10 05:57:15;;;;;;;;;;;12.70;57.10;;;;;;2074929;28;679;-81
2021/04/10 05:58:34;;;;;;;;;;;12.70;57.70;;;;;;2061987;28;1343;-79
2021/04/10 05:59:53;;;;;;;;;;;12.70;57.10;;;;;;2066818;28;1389;-81
2021/04/10 06:01:12;;;;;;;;;;;12.70;57.00;;;;;;2050953;29;631;-81
2021/04/10 06:02:31;;;;;;;;;;;12.70;57.10;;;;;;2053615;28;660;-81
2021/04/10 06:03:51;;;;;;;;;;;12.70;57.10;;;;;;2056261;28;608;-81
2021/04/10 06:05:10;;;;;;;;;;;12.70;57.00;;;;;;2064641;28;660;-80
2021/04/10 06:06:30;;;;;;;;;;;12.70;57.10;;;;;;2060115;28;1133;-80
2021/04/10 06:07:49;;;;;;;;;;;12.70;57.10;;;;;;2067910;28;954;-81
2021/04/10 06:09:08;;;;;;;;;;;12.70;57.10;;;;;;2062504;28;1422;-81
2021/04/10 06:10:28;;;;;;;;;;;12.60;57.10;;;;;;2059506;28;603;-80
2021/04/10 06:11:49;;;;;;;;;;;12.70;57.10;;;;;;2048252;29;699;-80
2021/04/10 06:13:09;;;;;;;;;;;12.70;57.10;;;;;;2056547;28;1965;-81
2021/04/10 06:14:28;;;;;;;;;;;12.70;57.10;;;;;;2048117;28;1449;-82
2021/04/10 06:15:47;;;;;;;;;;;12.60;57.20;;;;;;2061525;28;596;-81
2021/04/10 06:17:06;;;;;;;;;;;12.70;57.20;;;;;;2069847;28;1193;-82
2021/04/10 06:18:26;;;;;;;;;;;12.70;57.20;;;;;;2071814;28;613;-81
2021/04/10 06:19:45;;;;;;;;;;;12.60;57.00;;;;;;2079530;28;1358;-81
2021/04/10 06:21:05;;;;;;;;;;;12.60;57.00;;;;;;2075300;28;694;-81
2021/04/10 06:22:24;;;;;;;;;;;12.60;57.00;;;;;;2084406;28;572;-83
2021/04/10 06:23:46;;;;;;;;;;;12.70;57.00;;;;;;2060917;28;710;-82
2021/04/10 06:25:07;;;;;;;;;;;12.60;56.90;;;;;;2077372;28;604;-82
2021/04/10 06:26:26;;;;;;;;;;;12.60;57.40;;;;;;2066085;28;580;-82
2021/04/10 06:27:46;;;;;;;;;;;12.60;56.80;;;;;;2054919;28;612;-82
2021/04/10 06:29:05;;;;;;;;;;;12.60;56.80;;;;;;2067515;28;1153;-83
2021/04/10 06:30:24;;;;;;;;;;;12.60;56.80;;;;;;2064434;28;1054;-83
2021/04/10 06:31:43;;;;;;;;;;;12.60;56.80;;;;;;2064962;28;656;-84
2021/04/10 06:33:03;;;;;;;;;;;12.60;56.80;;;;;;2067463;28;1973;-82
2021/04/10 06:34:22;;;;;;;;;;;12.60;56.80;;;;;;2063828;28;1391;-84
2021/04/10 06:35:41;;;;;;;;;;;12.60;57.80;;;;;;2056415;28;661;-81
2021/04/10 06:37:01;;;;;;;;;;;12.60;58.90;;;;;;2063201;28;1097;-82
2021/04/10 06:38:20;;;;;;;;;;;12.50;60.80;;;;;;2072437;28;1064;-84
2021/04/10 06:39:39;;;;;;;;;;;12.50;62.10;;;;;;2059488;28;1484;-80
2021/04/10 06:40:59;;;;;;;;;;;12.40;66.60;;;;;;2056268;28;636;-83
2021/04/10 06:42:20;;;;;;;;;;;12.30;65.30;;;;;;2073615;28;679;-82
2021/04/10 06:43:42;;;;;;;;;;;12.30;66.00;;;;;;2071331;28;679;-82
2021/04/10 06:45:02;;;;;;;;;;;12.30;65.20;;;;;;2073199;28;1390;-82
2021/04/10 06:46:21;;;;;;;;;;;12.40;65.20;;;;;;2058654;28;722;-82
2021/04/10 06:47:40;;;;;;;;;;;12.40;65.10;;;;;;2064453;28;611;-83
2021/04/10 06:49:00;;;;;;;;;;;12.40;64.90;;;;;;2056793;28;1660;-83
2021/04/10 06:50:21;;;;;;;;;;;12.40;64.70;;;;;;2071413;28;699;-84
2021/04/10 06:51:43;;;;;;;;;;;12.40;64.40;;;;;;2067678;28;627;-83
2021/04/10 06:53:02;;;;;;;;;;;12.40;63.80;;;;;;2063895;28;1965;-84
2021/04/10 06:54:22;;;;;;;;;;;12.50;63.80;;;;;;2055808;28;679;-82
2021/04/10 06:56:08;;;;;;;;;;;12.50;63.60;;;;;;2068582;28;662;-84
2021/04/10 06:58:06;;;;;;;;;;;12.50;63.50;;;;;;2074665;28;1070;-82
2021/04/10 07:00:03;;;;;;;;;;;12.50;63.00;;;;;;2068396;28;1414;-84
2021/04/10 07:02:19;;;;;;;;;;;;;;;;;;;;;
2021/04/10 07:05:39;;;;;;;;;;;12.50;61.50;;;;;;2069272;28;663;-82
2021/04/10 07:07:39;;;;;;;;;;;12.50;61.40;;;;;;2073425;28;1056;-84
2021/04/10 07:08:59;;;;;;;;;;;12.60;61.70;;;;;;2069088;28;990;-84
2021/04/10 07:10:19;;;;;;;;;;;12.70;61.10;;;;;;2063065;28;687;-83
2021/04/10 07:11:38;;;;;;;;;;;12.70;60.80;;;;;;2070124;28;635;-83
2021/04/10 07:12:57;;;;;;;;;;;12.80;60.30;;;;;;2073971;28;1961;-83
2021/04/10 07:14:16;;;;;;;;;;;12.80;59.90;;;;;;2077161;28;615;-82
2021/04/10 07:15:35;;;;;;;;;;;12.90;59.70;;;;;;2072184;28;671;-81
2021/04/10 07:16:55;;;;;;;;;;;12.90;59.90;;;;;;2075475;28;1105;-82
2021/04/10 07:18:14;;;;;;;;;;;13.00;59.80;;;;;;2063419;28;976;-81
2021/04/10 07:19:33;;;;;;;;;;;13.10;58.90;;;;;;2057146;28;1423;-83
2021/04/10 07:20:55;;;;;;;;;;;13.10;58.70;;;;;;2056377;28;835;-84
2021/04/10 07:22:14;;;;;;;;;;;13.10;58.50;;;;;;2061028;28;872;-83
2021/04/10 07:23:41;;;;;;;;;;;13.20;58.30;;;;;;2064953;28;952;-81
2021/04/10 07:25:01;;;;;;;;;;;13.30;58.10;;;;;;2071300;28;782;-81
2021/04/10 07:26:40;;;;;;;;;;;13.30;57.80;;;;;;2068763;28;845;-81
2021/04/10 07:28:25;;;;;;;;;;;13.30;57.60;;;;;;2072182;28;1196;-81
2021/04/10 07:29:45;;;;;;;;;;;13.40;57.50;;;;;;2067319;28;1349;-81
2021/04/10 07:31:04;;;;;;;;;;;13.40;57.30;;;;;;2060290;28;1106;-82
2021/04/10 07:32:33;;;;;;;;;;;13.40;57.20;;;;;;2070039;28;1879;-81
2021/04/10 07:33:58;;;;;;;;;;;13.40;57.20;;;;;;2059919;28;898;-83
2021/04/10 07:35:47;;;;;;;;;;;13.40;57.10;;;;;;2071660;28;940;-84
2021/04/10 07:37:09;;;;;;;;;;;13.50;57.20;;;;;;2065792;28;878;-83
2021/04/10 07:38:32;;;;;;;;;;;13.40;57.00;;;;;;2056797;28;927;-84
2021/04/10 07:39:57;;;;;;;;;;;13.50;56.90;;;;;;2058083;28;1390;-83
2021/04/10 07:45:36;;;;;;;;;;;13.60;56.70;;;;;;2066315;28;1189;-83
2021/04/10 07:47:26;;;;;;;;;;;13.60;56.60;;;;;;2077968;28;1006;-83
2021/04/10 07:49:08;;;;;;;;;;;13.70;56.40;;;;;;2075626;28;1057;-83
2021/04/10 07:50:33;;;;;;;;;;;13.70;56.30;;;;;;2073678;28;937;-84
2021/04/10 07:52:07;;;;;;;;;;;13.90;56.70;;;;;;2075161;28;919;-83
2021/04/10 07:53:41;;;;;;;;;;;13.90;56.00;;;;;;2056558;28;887;-84
2021/04/10 07:55:13;;;;;;;;;;;14.00;55.90;;;;;;2070763;28;966;-84
2021/04/10 07:58:45;;;;;;;;;;;14.10;55.60;;;;;;2072666;28;1137;-83
2021/04/10 08:00:05;;;;;;;;;;;14.20;55.40;;;;;;2061422;28;1527;-84
2021/04/10 08:01:24;;;;;;;;;;;14.20;55.30;;;;;;2071936;28;895;-84
2021/04/10 08:02:43;;;;;;;;;;;14.30;55.20;;;;;;2063902;28;891;-83
2021/04/10 08:04:20;;;;;;;;;;;14.30;55.50;;;;;;2064385;28;999;-84
2021/04/10 08:05:40;;;;;;;;;;;14.40;55.00;;;;;;2073465;28;985;-83
2021/04/10 08:07:00;;;;;;;;;;;14.50;54.80;;;;;;2065864;28;889;-83
2021/04/10 08:08:20;;;;;;;;;;;14.50;54.60;;;;;;2072248;28;892;-83
2021/04/10 08:09:40;;;;;;;;;;;14.60;54.50;;;;;;2072983;28;1408;-84
2021/04/10 08:10:59;;;;;;;;;;;14.70;54.50;;;;;;2067555;28;855;-82
2021/04/10 08:12:19;;;;;;;;;;;14.70;54.30;;;;;;2064605;28;966;-82
2021/04/10 08:13:38;;;;;;;;;;;14.80;54.10;;;;;;2056083;28;1165;-84
2021/04/10 08:14:57;;;;;;;;;;;14.90;54.00;;;;;;2059570;28;838;-84
2021/04/10 08:16:19;;;;;;;;;;;14.90;53.80;;;;;;2070195;28;970;-84
2021/04/10 08:17:40;;;;;;;;;;;15.00;54.40;;;;;;2058315;28;1129;-85